createdAt,value
2023-04-19T00:01:41.457Z,8.52
2023-04-19T00:04:08.377Z,8.50
2023-04-19T00:06:35.938Z,8.47
2023-04-19T00:09:02.753Z,8.43
2023-04-19T00:11:29.633Z,8.39
2023-04-19T00:13:56.250Z,8.37
2023-04-19T00:16:22.898Z,8.34
2023-04-19T00:18:50.194Z,8.32
2023-04-19T00:21:16.807Z,8.30
2023-04-19T00:23:43.649Z,8.28
2023-04-19T00:26:11.135Z,8.26
2023-04-19T00:28:38.156Z,8.25
2023-04-19T00:31:04.995Z,8.21
2023-04-19T00:33:32.590Z,8.20
2023-04-19T00:35:59.193Z,8.18
2023-04-19T00:38:25.770Z,8.17
2023-04-19T00:40:52.424Z,8.15
2023-04-19T00:43:19.616Z,8.12
2023-04-19T00:45:46.273Z,8.10
2023-04-19T00:48:13.321Z,8.07
2023-04-19T00:50:41.029Z,8.05
2023-04-19T00:53:07.643Z,8.01
2023-04-19T00:55:34.474Z,7.97
2023-04-19T00:58:01.317Z,7.96
2023-04-19T01:00:28.094Z,7.93
2023-04-19T01:02:55.353Z,7.90
2023-04-19T01:05:22.890Z,7.86
2023-04-19T01:07:50.914Z,7.81
2023-04-19T01:10:18.083Z,7.75
2023-04-19T01:12:45.248Z,7.69
2023-04-19T01:15:11.813Z,7.64
2023-04-19T01:17:38.628Z,7.59
2023-04-19T01:20:07.446Z,7.52
2023-04-19T01:22:37.218Z,7.47
2023-04-19T01:25:05.989Z,7.41
2023-04-19T01:27:32.774Z,7.34
2023-04-19T01:29:59.411Z,7.28
2023-04-19T01:32:27.127Z,7.21
2023-04-19T01:34:55.911Z,7.14
2023-04-19T01:37:22.679Z,7.06
2023-04-19T01:39:49.773Z,6.99
2023-04-19T01:42:16.461Z,6.92
2023-04-19T01:44:43.082Z,6.84
2023-04-19T01:47:09.762Z,6.76
2023-04-19T01:49:36.536Z,6.70
2023-04-19T01:52:03.299Z,6.64
2023-04-19T01:54:30.415Z,6.58
2023-04-19T01:56:57.971Z,6.52
2023-04-19T01:59:25.342Z,6.47
2023-04-19T02:01:52.034Z,6.43
2023-04-19T02:04:20.064Z,6.38
2023-04-19T02:06:46.957Z,6.36
2023-04-19T02:09:13.582Z,6.33
2023-04-19T02:11:42.115Z,6.32
2023-04-19T02:14:08.966Z,6.31
2023-04-19T02:16:36.467Z,6.29
2023-04-19T02:19:04.052Z,6.26
2023-04-19T02:21:31.369Z,6.23
2023-04-19T02:23:58.106Z,6.18
2023-04-19T02:26:24.873Z,6.13
2023-04-19T02:28:52.406Z,6.09
2023-04-19T02:31:19.121Z,6.03
2023-04-19T02:33:46.214Z,5.98
2023-04-19T02:36:12.864Z,5.94
2023-04-19T02:38:40.137Z,5.90
2023-04-19T02:41:06.820Z,5.86
2023-04-19T02:43:33.783Z,5.83
2023-04-19T02:46:01.219Z,5.81
2023-04-19T02:48:28.000Z,5.80
2023-04-19T02:50:56.462Z,5.77
2023-04-19T02:53:23.515Z,5.77
2023-04-19T02:55:50.500Z,5.77
2023-04-19T02:58:19.480Z,5.76
2023-04-19T03:01:00.181Z,5.76
2023-04-19T03:03:27.141Z,5.76
2023-04-19T03:05:54.311Z,5.78
2023-04-19T03:08:21.873Z,5.80
2023-04-19T03:10:49.611Z,5.83
2023-04-19T03:13:16.220Z,5.86
2023-04-19T03:15:42.942Z,5.89
2023-04-19T03:18:10.005Z,5.92
2023-04-19T03:20:36.929Z,5.96
2023-04-19T03:23:03.751Z,5.99
2023-04-19T03:25:32.706Z,6.03
2023-04-19T03:28:09.262Z,6.09
2023-04-19T03:30:53.573Z,6.16
2023-04-19T03:33:20.472Z,6.22
2023-04-19T03:35:47.613Z,6.29
2023-04-19T03:38:15.574Z,6.36
2023-04-19T03:40:42.905Z,6.43
2023-04-19T03:43:09.887Z,6.50
2023-04-19T03:45:36.508Z,6.56
2023-04-19T03:48:03.591Z,6.63
2023-04-19T03:50:30.715Z,6.68
2023-04-19T03:52:57.554Z,6.73
2023-04-19T03:55:24.926Z,6.79
2023-04-19T03:57:52.142Z,6.86
2023-04-19T04:00:24.264Z,6.93
2023-04-19T04:02:54.324Z,6.99
2023-04-19T04:05:21.367Z,7.06
2023-04-19T04:07:48.137Z,7.14
2023-04-19T04:10:15.029Z,7.23
2023-04-19T04:12:42.887Z,7.31
2023-04-19T04:15:11.178Z,7.39
2023-04-19T04:17:41.754Z,7.46
2023-04-19T04:20:09.325Z,7.53
2023-04-19T04:22:36.957Z,7.60
2023-04-19T04:25:04.244Z,7.68
2023-04-19T04:27:37.365Z,7.81
2023-04-19T04:30:06.022Z,7.93
2023-04-19T04:32:35.969Z,8.09
2023-04-19T04:35:04.641Z,8.28
2023-04-19T04:37:49.672Z,8.49
2023-04-19T04:40:16.385Z,8.70
2023-04-19T04:42:44.898Z,8.93
2023-04-19T04:45:12.472Z,9.12
2023-04-19T04:47:39.881Z,9.21
2023-04-19T04:50:07.506Z,9.23
2023-04-19T04:52:34.234Z,9.19
2023-04-19T04:55:07.116Z,9.16
2023-04-19T04:57:35.876Z,9.14
2023-04-19T05:00:06.028Z,9.16
2023-04-19T05:02:37.455Z,9.22
2023-04-19T05:05:05.128Z,9.26
2023-04-19T05:07:32.821Z,9.36
2023-04-19T05:10:01.682Z,9.61
2023-04-19T05:12:33.534Z,10.15
2023-04-19T05:15:00.600Z,10.77
2023-04-19T05:17:28.148Z,11.44
2023-04-19T05:19:54.837Z,12.13
2023-04-19T05:22:21.907Z,12.76
2023-04-19T05:24:49.820Z,13.17
2023-04-19T05:27:16.708Z,13.50
2023-04-19T05:29:44.075Z,13.69
2023-04-19T05:32:11.094Z,13.87
2023-04-19T05:34:44.604Z,14.22
2023-04-19T05:37:12.696Z,14.78
2023-04-19T05:39:41.037Z,15.40
2023-04-19T05:42:09.154Z,16.05
2023-04-19T05:44:36.239Z,16.80
2023-04-19T05:47:03.083Z,17.41
2023-04-19T05:50:05.741Z,17.82
2023-04-19T05:52:37.486Z,17.76
2023-04-19T05:55:05.386Z,17.82
2023-04-19T05:57:33.197Z,17.85
2023-04-19T06:02:44.167Z,17.69
2023-04-19T06:05:12.843Z,17.73
2023-04-19T06:07:43.228Z,17.90
2023-04-19T06:10:13.872Z,18.14
2023-04-19T06:12:41.617Z,18.73
2023-04-19T06:15:08.855Z,19.32
2023-04-19T06:17:36.703Z,19.88
2023-04-19T06:20:06.479Z,20.45
2023-04-19T06:22:33.489Z,21.13
2023-04-19T06:25:00.817Z,21.79
2023-04-19T06:27:27.495Z,22.33
2023-04-19T06:29:54.759Z,22.54
2023-04-19T06:32:21.602Z,22.75
2023-04-19T06:34:48.425Z,23.05
2023-04-19T06:37:15.159Z,23.23
2023-04-19T06:39:42.186Z,23.62
2023-04-19T06:42:09.162Z,23.87
2023-04-19T06:44:38.813Z,24.24
2023-04-19T06:47:07.178Z,24.60
2023-04-19T06:49:34.521Z,24.91
2023-04-19T06:52:01.352Z,25.27
2023-04-19T06:54:28.517Z,25.54
2023-04-19T06:56:56.832Z,25.50
2023-04-19T06:59:29.600Z,25.68
2023-04-19T07:01:58.266Z,26.10
2023-04-19T07:04:34.580Z,26.47
2023-04-19T07:07:01.637Z,26.74
2023-04-19T07:09:28.681Z,26.94
2023-04-19T07:11:55.461Z,27.00
2023-04-19T07:14:23.318Z,26.85
2023-04-19T07:16:50.976Z,26.82
2023-04-19T07:19:20.105Z,26.86
2023-04-19T07:21:47.030Z,26.83
2023-04-19T07:24:14.111Z,26.85
2023-04-19T07:26:41.122Z,26.92
2023-04-19T07:29:08.811Z,26.49
2023-04-19T07:31:36.368Z,26.17
2023-04-19T07:34:03.644Z,26.44
2023-04-19T07:36:31.200Z,26.85
2023-04-19T07:38:58.090Z,26.89
2023-04-19T07:41:25.074Z,26.83
2023-04-19T07:43:52.061Z,26.52
2023-04-19T07:46:18.971Z,26.21
2023-04-19T07:48:46.030Z,26.49
2023-04-19T07:51:16.553Z,26.93
2023-04-19T07:53:43.480Z,27.15
2023-04-19T07:56:12.747Z,27.58
2023-04-19T07:58:40.775Z,27.92
2023-04-19T08:01:07.533Z,28.38
2023-04-19T08:03:35.787Z,28.50
2023-04-19T08:06:08.307Z,28.69
2023-04-19T08:08:36.216Z,28.94
2023-04-19T08:11:04.747Z,29.08
2023-04-19T08:13:31.936Z,28.90
2023-04-19T08:18:28.716Z,28.16
2023-04-19T08:20:56.553Z,28.17
2023-04-19T08:23:29.481Z,28.53
2023-04-19T08:26:02.183Z,28.75
2023-04-19T08:28:31.926Z,28.67
2023-04-19T08:31:00.810Z,28.70
2023-04-19T08:33:28.366Z,28.89
2023-04-19T08:35:55.391Z,28.91
2023-04-19T08:38:22.464Z,28.70
2023-04-19T08:40:53.232Z,28.82
2023-04-19T08:43:20.612Z,28.83
2023-04-19T08:45:49.622Z,28.92
2023-04-19T08:48:17.358Z,29.00
2023-04-19T08:51:03.561Z,29.08
2023-04-19T08:53:35.456Z,28.95
2023-04-19T09:01:06.489Z,29.67
2023-04-19T09:03:44.014Z,29.77
2023-04-19T09:06:18.608Z,29.74
2023-04-19T09:08:45.579Z,30.03
2023-04-19T09:11:12.595Z,30.35
2023-04-19T09:13:43.464Z,30.45
2023-04-19T09:16:24.354Z,30.31
2023-04-19T09:19:08.146Z,29.61
2023-04-19T09:21:42.295Z,28.75
2023-04-19T09:24:09.246Z,28.41
2023-04-19T09:26:36.144Z,28.16
2023-04-19T09:29:06.478Z,27.87
2023-04-19T09:31:51.064Z,27.84
2023-04-19T09:34:18.833Z,28.04
2023-04-19T09:36:46.622Z,28.22
2023-04-19T09:39:14.111Z,28.33
2023-04-19T09:41:52.089Z,28.34
2023-04-19T09:46:53.154Z,28.13
2023-04-19T09:49:33.470Z,28.04
2023-04-19T09:52:04.184Z,27.58
2023-04-19T09:54:32.096Z,27.10
2023-04-19T09:57:01.322Z,26.88
2023-04-19T09:59:28.823Z,26.66
2023-04-19T10:01:55.877Z,26.54
2023-04-19T10:04:33.293Z,26.43
2023-04-19T10:07:29.064Z,26.24
2023-04-19T10:10:04.936Z,25.81
2023-04-19T10:12:59.147Z,25.41
2023-04-19T10:15:29.487Z,24.89
2023-04-19T10:18:00.891Z,24.44
2023-04-19T10:20:39.408Z,24.34
2023-04-19T10:23:09.182Z,24.49
2023-04-19T10:25:36.661Z,24.45
2023-04-19T10:28:03.523Z,24.57
2023-04-19T10:30:30.750Z,24.49
2023-04-19T10:33:02.453Z,24.26
2023-04-19T10:35:37.015Z,24.18
2023-04-19T10:38:03.854Z,24.27
2023-04-19T10:41:03.395Z,23.97
2023-04-19T10:43:31.180Z,23.51
2023-04-19T10:46:08.886Z,23.40
2023-04-19T10:48:43.142Z,23.34
2023-04-19T10:51:18.905Z,23.15
2023-04-19T10:53:48.945Z,23.00
2023-04-19T10:56:36.069Z,22.83
2023-04-19T10:59:10.637Z,22.31
2023-04-19T11:01:43.750Z,21.92
2023-04-19T11:04:11.550Z,21.82
2023-04-19T11:06:55.676Z,21.91
2023-04-19T11:09:28.221Z,22.09
2023-04-19T11:12:02.236Z,22.08
2023-04-19T11:14:31.537Z,21.87
2023-04-19T11:16:59.396Z,21.47
2023-04-19T11:19:26.509Z,21.43
2023-04-19T11:21:53.404Z,21.62
2023-04-19T11:24:20.467Z,21.58
2023-04-19T11:26:50.806Z,21.41
2023-04-19T11:29:19.721Z,21.19
2023-04-19T11:31:46.574Z,20.84
2023-04-19T11:34:13.964Z,20.62
2023-04-19T11:36:50.575Z,20.47
2023-04-19T11:39:18.185Z,20.41
2023-04-19T11:41:47.229Z,20.27
2023-04-19T11:44:19.778Z,19.91
2023-04-19T11:47:04.504Z,19.55
2023-04-19T11:49:32.671Z,19.34
2023-04-19T11:52:00.392Z,19.09
2023-04-19T11:54:27.538Z,18.79
2023-04-19T11:57:04.202Z,18.63
2023-04-19T11:59:32.112Z,18.53
2023-04-19T12:02:17.501Z,18.37
2023-04-19T12:04:44.324Z,18.27
2023-04-19T12:07:11.555Z,18.10
2023-04-19T12:09:38.764Z,17.85
2023-04-19T12:12:06.274Z,17.60
2023-04-19T12:14:33.745Z,17.44
2023-04-19T12:17:04.845Z,17.27
2023-04-19T12:19:36.525Z,17.09
2023-04-19T12:22:17.023Z,16.90
2023-04-19T12:24:43.962Z,16.69
2023-04-19T12:27:11.244Z,16.55
2023-04-19T12:29:38.571Z,16.54
2023-04-19T12:32:05.675Z,16.55
2023-04-19T12:34:32.749Z,16.58
2023-04-19T12:36:59.652Z,16.60
2023-04-19T12:39:27.665Z,16.62
2023-04-19T12:41:54.291Z,16.59
2023-04-19T12:44:21.190Z,16.48
2023-04-19T12:46:48.032Z,16.29
2023-04-19T12:49:17.728Z,16.15
2023-04-19T12:51:46.922Z,16.08
2023-04-19T12:54:14.834Z,16.02
2023-04-19T12:56:41.528Z,15.95
2023-04-19T12:59:08.229Z,15.94
2023-04-19T13:01:35.257Z,15.97
2023-04-19T13:04:02.515Z,16.02
2023-04-19T13:06:30.740Z,15.94
2023-04-19T13:09:00.927Z,15.72
2023-04-19T13:11:28.255Z,15.62
2023-04-19T13:13:55.223Z,15.53
2023-04-19T13:16:22.671Z,15.48
2023-04-19T13:18:50.375Z,15.44
2023-04-19T13:21:17.476Z,15.45
2023-04-19T13:23:44.542Z,15.48
2023-04-19T13:26:11.443Z,15.49
2023-04-19T13:28:39.296Z,15.46
2023-04-19T13:31:06.044Z,15.33
2023-04-19T13:33:33.593Z,15.23
2023-04-19T13:36:00.905Z,15.23
2023-04-19T13:38:28.186Z,15.16
2023-04-19T13:40:55.599Z,15.08
2023-04-19T13:43:22.591Z,15.03
2023-04-19T13:45:49.267Z,14.98
2023-04-19T13:48:16.197Z,14.85
2023-04-19T13:50:42.984Z,14.80
2023-04-19T13:53:10.045Z,14.80
2023-04-19T13:55:36.701Z,14.79
2023-04-19T13:58:03.408Z,14.81
2023-04-19T14:00:30.350Z,14.84
2023-04-19T14:02:57.497Z,14.80
2023-04-19T14:05:24.405Z,14.72
2023-04-19T14:07:51.891Z,14.68
2023-04-19T14:10:19.059Z,14.63
2023-04-19T14:12:46.653Z,14.56
2023-04-19T14:15:13.295Z,14.45
2023-04-19T14:17:40.420Z,14.35
2023-04-19T14:20:07.897Z,14.34
2023-04-19T14:22:35.716Z,14.35
2023-04-19T14:25:03.589Z,14.33
2023-04-19T14:27:30.474Z,14.26
2023-04-19T14:29:57.120Z,14.21
2023-04-19T14:32:26.743Z,14.21
2023-04-19T14:34:55.272Z,14.16
2023-04-19T14:37:22.804Z,14.08
2023-04-19T14:39:49.403Z,14.00
2023-04-19T14:42:16.170Z,13.94
2023-04-19T14:44:45.774Z,13.93
2023-04-19T14:47:13.749Z,13.91
2023-04-19T14:49:41.445Z,13.89
2023-04-19T14:52:08.138Z,13.87
2023-04-19T14:54:34.764Z,13.82
2023-04-19T14:57:02.404Z,13.76
2023-04-19T14:59:29.925Z,13.74
2023-04-19T15:01:56.824Z,13.71
2023-04-19T15:04:24.016Z,13.65
2023-04-19T15:06:51.088Z,13.59
2023-04-19T15:09:18.185Z,13.56
2023-04-19T15:11:45.264Z,13.54
2023-04-19T15:14:11.868Z,13.49
2023-04-19T15:16:38.765Z,13.44
2023-04-19T15:19:06.865Z,13.37
2023-04-19T15:21:34.147Z,13.33
2023-04-19T15:24:00.927Z,13.29
2023-04-19T15:26:27.588Z,13.27
2023-04-19T15:28:55.204Z,13.24
2023-04-19T15:31:21.972Z,13.21
2023-04-19T15:33:48.724Z,13.17
2023-04-19T15:36:15.716Z,13.13
2023-04-19T15:38:43.937Z,13.09
2023-04-19T15:41:10.839Z,13.06
2023-04-19T15:43:37.520Z,13.05
2023-04-19T15:46:04.310Z,13.04
2023-04-19T15:48:31.312Z,13.01
2023-04-19T15:50:58.511Z,12.97
2023-04-19T15:53:25.417Z,12.94
2023-04-19T15:55:52.892Z,12.92
2023-04-19T15:58:20.494Z,12.91
2023-04-19T16:00:47.097Z,12.89
2023-04-19T16:03:13.995Z,12.87
2023-04-19T16:05:40.874Z,12.86
2023-04-19T16:08:08.550Z,12.82
2023-04-19T16:10:36.372Z,12.78
2023-04-19T16:13:04.268Z,12.74
2023-04-19T16:15:31.442Z,12.72
2023-04-19T16:17:58.108Z,12.71
2023-04-19T16:20:24.776Z,12.66
2023-04-19T16:22:51.523Z,12.65
2023-04-19T16:25:18.259Z,12.63
2023-04-19T16:27:45.556Z,12.62
2023-04-19T16:30:12.896Z,12.60
2023-04-19T16:32:40.748Z,12.59
2023-04-19T16:35:07.655Z,12.57
2023-04-19T16:37:34.714Z,12.55
2023-04-19T16:40:06.386Z,12.52
2023-04-19T16:42:34.009Z,12.50
2023-04-19T16:45:00.904Z,12.48
2023-04-19T16:47:29.598Z,12.46
2023-04-19T16:49:57.255Z,12.45
2023-04-19T16:52:25.065Z,12.44
2023-04-19T16:54:51.869Z,12.42
2023-04-19T16:57:18.586Z,12.39
2023-04-19T16:59:45.383Z,12.37
2023-04-19T17:02:12.475Z,12.34
2023-04-19T17:04:39.669Z,12.30
2023-04-19T17:07:08.008Z,12.26
2023-04-19T17:09:35.728Z,12.22
2023-04-19T17:12:02.630Z,12.20
2023-04-19T17:14:29.398Z,12.18
2023-04-19T17:16:56.143Z,12.16
2023-04-19T17:19:22.795Z,12.16
2023-04-19T17:21:49.356Z,12.14
2023-04-19T17:24:16.017Z,12.13
2023-04-19T17:26:42.634Z,12.11
2023-04-19T17:29:09.479Z,12.10
2023-04-19T17:31:36.545Z,12.09
2023-04-19T17:34:03.272Z,12.08
2023-04-19T17:36:31.057Z,12.07
2023-04-19T17:38:57.738Z,12.06
2023-04-19T17:41:24.338Z,12.04
2023-04-19T17:43:51.430Z,12.02
2023-04-19T17:46:18.710Z,12.01
2023-04-19T17:48:45.922Z,12.00
2023-04-19T17:51:12.537Z,11.99
2023-04-19T17:53:39.213Z,11.99
2023-04-19T17:56:05.827Z,11.98
2023-04-19T17:58:35.088Z,11.98
2023-04-19T18:01:02.895Z,11.97
2023-04-19T18:03:30.372Z,11.95
2023-04-19T18:05:57.192Z,11.95
2023-04-19T18:08:24.132Z,11.94
2023-04-19T18:10:50.823Z,11.92
2023-04-19T18:13:18.362Z,11.90
2023-04-19T18:15:45.107Z,11.88
2023-04-19T18:18:11.797Z,11.84
2023-04-19T18:20:38.801Z,11.81
2023-04-19T18:23:05.525Z,11.77
2023-04-19T18:25:36.079Z,11.73
2023-04-19T18:28:03.849Z,11.67
2023-04-19T18:30:30.882Z,11.62
2023-04-19T18:32:58.395Z,11.57
2023-04-19T18:35:25.100Z,11.51
2023-04-19T18:37:51.773Z,11.45
2023-04-19T18:40:18.796Z,11.39
2023-04-19T18:42:45.580Z,11.33
2023-04-19T18:45:12.336Z,11.26
2023-04-19T18:47:39.059Z,11.19
2023-04-19T18:50:07.879Z,11.11
2023-04-19T18:52:38.110Z,11.01
2023-04-19T18:55:05.534Z,10.92
2023-04-19T18:57:34.726Z,10.82
2023-04-19T19:00:04.707Z,10.71
2023-04-19T19:02:33.724Z,10.61
2023-04-19T19:05:02.368Z,10.51
2023-04-19T19:10:01.580Z,10.31
2023-04-19T19:12:29.308Z,10.23
2023-04-19T19:14:56.152Z,10.14
2023-04-19T19:17:27.930Z,10.06
2023-04-19T19:19:55.143Z,9.99
2023-04-19T19:22:28.390Z,9.93
2023-04-19T19:24:57.024Z,9.87
2023-04-19T19:27:23.880Z,9.82
2023-04-19T19:29:50.418Z,9.79
2023-04-19T19:32:18.611Z,9.75
2023-04-19T19:34:54.773Z,9.73
2023-04-19T19:37:22.980Z,9.73
2023-04-19T19:39:49.862Z,9.73
2023-04-19T19:42:17.182Z,9.74
2023-04-19T19:44:43.917Z,9.76
2023-04-19T19:47:11.156Z,9.76
2023-04-19T19:52:07.753Z,9.78
2023-04-19T19:54:34.697Z,9.78
2023-04-19T19:59:34.648Z,9.80
2023-04-19T20:02:02.915Z,9.80
2023-04-19T20:04:31.121Z,9.78
2023-04-19T20:07:28.767Z,9.76
2023-04-19T20:09:45.061Z,9.73
2023-04-19T20:12:12.837Z,9.71
2023-04-19T20:14:39.789Z,9.68
2023-04-19T20:17:06.591Z,9.67
2023-04-19T20:19:33.398Z,9.67
2023-04-19T20:22:00.059Z,9.66
2023-04-19T20:24:26.985Z,9.66
2023-04-19T20:26:54.051Z,9.65
2023-04-19T20:29:20.872Z,9.64
2023-04-19T20:31:47.635Z,9.64
2023-04-19T20:34:14.355Z,9.64
2023-04-19T20:36:41.065Z,9.64
2023-04-19T20:39:12.507Z,9.64
2023-04-19T20:41:40.043Z,9.64
2023-04-19T20:44:06.989Z,9.63
2023-04-19T20:46:33.997Z,9.60
2023-04-19T20:49:00.653Z,9.56
2023-04-19T20:51:27.229Z,9.52
2023-04-19T20:53:53.827Z,9.49
2023-04-19T20:56:20.998Z,9.47
2023-04-19T20:58:48.026Z,9.43
2023-04-19T21:01:16.758Z,9.40
2023-04-19T21:03:43.748Z,9.37
2023-04-19T21:06:11.001Z,9.33
2023-04-19T21:08:38.043Z,9.31
2023-04-19T21:11:04.736Z,9.30
2023-04-19T21:13:32.722Z,9.28
2023-04-19T21:15:59.655Z,9.27
2023-04-19T21:18:29.126Z,9.24
2023-04-19T21:20:56.673Z,9.22
2023-04-19T21:23:23.520Z,9.21
2023-04-19T21:25:50.173Z,9.21
2023-04-19T21:28:16.795Z,9.21
2023-04-19T21:30:43.514Z,9.21
2023-04-19T21:33:10.248Z,9.22
2023-04-19T21:35:36.900Z,9.23
2023-04-19T21:38:03.545Z,9.23
2023-04-19T21:40:30.224Z,9.25
2023-04-19T21:42:56.886Z,9.25
2023-04-19T21:45:23.636Z,9.26
2023-04-19T21:47:50.697Z,9.28
2023-04-19T21:50:17.375Z,9.28
2023-04-19T21:52:44.271Z,9.29
2023-04-19T21:55:10.916Z,9.30
2023-04-19T21:57:37.902Z,9.31
2023-04-19T22:00:05.937Z,9.32
2023-04-19T22:02:33.689Z,9.32
2023-04-19T22:05:00.609Z,9.33
2023-04-19T22:07:29.683Z,9.33
2023-04-19T22:09:57.422Z,9.33
2023-04-19T22:12:24.208Z,9.31
2023-04-19T22:14:51.388Z,9.31
2023-04-19T22:17:18.085Z,9.31
2023-04-19T22:19:45.427Z,9.31
2023-04-19T22:22:12.086Z,9.31
2023-04-19T22:24:50.030Z,9.29
2023-04-19T22:27:24.037Z,9.29
2023-04-19T22:29:50.655Z,9.29
2023-04-19T22:32:17.312Z,9.29
2023-04-19T22:34:44.026Z,9.29
2023-04-19T22:37:11.033Z,9.28
2023-04-19T22:39:37.676Z,9.28
2023-04-19T22:42:04.430Z,9.28
2023-04-19T22:44:31.292Z,9.27
2023-04-19T22:46:59.077Z,9.27
2023-04-19T22:49:25.703Z,9.27
2023-04-19T22:51:54.231Z,9.27
2023-04-19T22:54:20.802Z,9.28
2023-04-19T22:56:47.418Z,9.28
2023-04-19T22:59:14.023Z,9.28
2023-04-19T23:01:40.768Z,9.29
2023-04-19T23:04:07.451Z,9.29
2023-04-19T23:06:36.280Z,9.28
2023-04-19T23:09:02.985Z,9.28
2023-04-19T23:11:29.740Z,9.28
2023-04-19T23:13:56.705Z,9.28
2023-04-19T23:16:23.909Z,9.27
2023-04-19T23:18:51.575Z,9.27
2023-04-19T23:21:18.238Z,9.28
2023-04-19T23:23:45.183Z,9.27
2023-04-19T23:26:11.831Z,9.28
2023-04-19T23:28:38.426Z,9.28
2023-04-19T23:31:05.150Z,9.28
2023-04-19T23:33:32.590Z,9.27
2023-04-19T23:35:59.364Z,9.27
2023-04-19T23:38:26.012Z,9.26
2023-04-19T23:40:52.675Z,9.25
2023-04-19T23:43:19.726Z,9.26
2023-04-19T23:45:46.348Z,9.26
2023-04-19T23:48:12.992Z,9.25
2023-04-19T23:50:39.702Z,9.25
2023-04-19T23:53:06.566Z,9.24
2023-04-19T23:55:33.281Z,9.23
2023-04-19T23:57:59.852Z,9.23
